CYGE weather

Golden Airport
Golden, British Columbia, Canada

Public forecast

Using degrees Celsius for public forecast. Weather courtesy of forecast.io.

Current aviation weather report (METAR) for Golden Airport

Report is more than 2 hours old.

Retrieved 2020/06/04 00:00 UTC (3 hours ago):

CYGE 040000Z 32006KT 290V010 20SM SCT070 BKN097 BKN130 15/M01 A3001 RMK CU3AC2AC1 LAST STFD OBS/NEXT 041200Z SLP174 DENSITY ALT 3100FT

Closest aviation forecast (TAF) to Golden Airport

Closest forecast is Calgary / Springbank Airport, 98.8 nm (183.0 km) E. Retrieved 2020-06-04 00:00 UTC (3 hours ago):

TAF CYBW 032338Z 0400/0404 28012G22KT P6SM SCT100 RMK FCST BASED ON AUTO OBS NXT FCST WILL BE ISSUED AT 041145Z